Bethesda, Tennessee
Current Conditions -  °F | °C
As of 2:53 AM on Saturday 25 Oct 2014 (Local Time) from KBNA Reporting Station
Scattered Clouds Scattered Clouds  
Wind Chill: 47°   Ceiling: Unl
Heat Index: 47°   Visibility: 9mi
Dew Point: 45°   Wind: 3mph
Humidity: 93%   Direction: 170°S
Pressure: 30.09"   Gusts: NA
Location:  35.7808°N, 86.7221°W
Report Text: KBNA 250753Z 17003KT 9SM SCT250 08/07 A3009 RMK AO2 SLP185 T00830072
Loading
Personal Weather Stations






























Interactive Weather Map
Tropical Storm Tracking
New forecast layout! Learn more

10-Day Weather Forecast

Advertisements
Track Severe Weather on mobile